Isola Bianca — ICLD — position and weather

sailwx.info

Track history (hours):
 
Tides and Currents Weather Stations Pressure Air Temp Water Temp Dewpoint Dewpoint Depression Visibility Wind Speed Wind Dir Waves Ship Positions

Isola Bianca

Last reported at 2015-Jul-04 21:14 UTC. Time now 2015-Jul-06 07:04 UTC.
Position N 37°34' W 000°59'.

Length 183 m; draft 7.7 m.

Type: Ship. MMSI: 247245200.

Date/timePositionNaut miles runAvg speedWind from/ knotsBaromVisibWave heightAir tempDewpointWater temp
2015-Jul-04 21:14N 37°34' W 000°59'  
2015-Jul-01 01:28N 37°34' W 001°04'6412.2
2015-Jun-30 20:14N 36°42' W 001°51'913.1
2015-Jun-30 19:32N 36°35' W 001°59'1812.9
2015-Jun-30 18:09N 36°22' W 002°14'14413.5
2015-Jun-30 07:32N 36°06' W 005°11'10 9.6
2015-Jun-30 06:30N 36°08' W 005°23'0 0.2
2015-Jun-30 05:32N 36°08' W 005°22'0 0.0
2015-Jun-30 02:20N 36°08' W 005°22'0 0.0
2015-Jun-29 22:17N 36°08' W 005°22'0 0.1
2015-Jun-29 19:26N 36°08' W 005°22'0 0.2
2015-Jun-29 18:26N 36°08' W 005°22'0 0.0
2015-Jun-29 17:32N 36°08' W 005°22'0 0.0
2015-Jun-29 16:33N 36°08' W 005°22'3 3.1
2015-Jun-29 15:33N 36°05' W 005°20'3 2.9
2015-Jun-29 14:33N 36°04' W 005°17'1211.8
2015-Jun-29 13:33N 35°57' W 005°29'10812.0
2015-Jun-29 04:33N 35°10' W 007°28'5111.8
2015-Jun-29 00:15N 34°41' W 008°19'811.5
2015-Jun-28 23:33N 34°37' W 008°27'2511.5
2015-Jun-28 21:21N 34°22' W 008°53'911.5
2015-Jun-28 20:33N 34°17' W 009°02'1211.4
2015-Jun-28 19:31N 34°11' W 009°14'1411.6
2015-Jun-28 18:19N 34°03' W 009°28'911.7
2015-Jun-28 17:31N 33°57' W 009°37'1111.9
2015-Jun-28 16:33N 33°51' W 009°48'1211.9
2015-Jun-28 15:33N 33°44' W 010°00'1212.1
2015-Jun-28 14:33N 33°38' W 010°12'1312.0
2015-Jun-28 13:30N 33°30' W 010°25'27 3.3
2015-Jun-28 05:25N 33°03' W 010°27'10510.7
2015-Jun-27 19:33N 31°58' W 012°04'1310.3
2015-Jun-27 18:15N 31°49' W 012°16'12710.8
2015-Jun-27 06:32N 30°26' W 014°08'1312.4
2015-Jun-27 05:29N 30°17' W 014°18'1212.3
2015-Jun-27 04:33N 30°08' W 014°27'1312.4
2015-Jun-27 03:32N 29°58' W 014°36'2812.4
2015-Jun-27 01:15N 29°37' W 014°57'912.7
2015-Jun-27 00:33N 29°30' W 015°04'1312.6
2015-Jun-26 23:33N 29°21' W 015°13'1312.5
2015-Jun-26 22:33N 29°11' W 015°23'1212.2
2015-Jun-26 21:32N 29°02' W 015°32'1212.5
2015-Jun-26 20:33N 28°52' W 015°41'1312.8
2015-Jun-26 19:33N 28°43' W 015°51'1312.8
2015-Jun-26 18:33N 28°33' W 016°00'12 4.9
2015-Jun-26 16:11N 28°29' W 016°13'0 0.1
2015-Jun-26 15:29N 28°29' W 016°13'0 0.0
2015-Jun-26 13:26N 28°29' W 016°13'0 0.0
2015-Jun-26 12:29N 28°29' W 016°13'0 0.0
2015-Jun-26 10:32N 28°29' W 016°13'0 0.0
2015-Jun-26 09:32N 28°29' W 016°13'0 0.3
2015-Jun-26 08:33N 28°29' W 016°12'4 4.5
2015-Jun-26 07:33N 28°25' W 016°14'3510.5
2015-Jun-26 04:15N 27°51' W 016°24'811.8
2015-Jun-26 03:32N 27°42' W 016°24'2311.4
2015-Jun-26 01:31N 27°19' W 016°26'  
Track history (hours):
 
Tides and Currents Weather Stations Pressure Air Temp Water Temp Dewpoint Dewpoint Depression Visibility Wind Speed Wind Dir Waves Ship Positions

Isola Bianca

Last reported at 2015-Jul-04 21:14 UTC. Time now 2015-Jul-06 07:04 UTC.
Position N 37°34' W 000°59'.

Length 183 m; draft 7.7 m.

Type: Ship. MMSI: 247245200.

Date/timePositionNaut miles runAvg speedWind from/ knotsBaromVisibWave heightAir tempDewpointWater temp
2015-Jul-04 21:14N 37°34' W 000°59'  
2015-Jul-01 01:28N 37°34' W 001°04'6412.2
2015-Jun-30 20:14N 36°42' W 001°51'913.1
2015-Jun-30 19:32N 36°35' W 001°59'1812.9
2015-Jun-30 18:09N 36°22' W 002°14'14413.5
2015-Jun-30 07:32N 36°06' W 005°11'10 9.6
2015-Jun-30 06:30N 36°08' W 005°23'0 0.2
2015-Jun-30 05:32N 36°08' W 005°22'0 0.0
2015-Jun-30 02:20N 36°08' W 005°22'0 0.0
2015-Jun-29 22:17N 36°08' W 005°22'0 0.1
2015-Jun-29 19:26N 36°08' W 005°22'0 0.2
2015-Jun-29 18:26N 36°08' W 005°22'0 0.0
2015-Jun-29 17:32N 36°08' W 005°22'0 0.0
2015-Jun-29 16:33N 36°08' W 005°22'3 3.1
2015-Jun-29 15:33N 36°05' W 005°20'3 2.9
2015-Jun-29 14:33N 36°04' W 005°17'1211.8
2015-Jun-29 13:33N 35°57' W 005°29'10812.0
2015-Jun-29 04:33N 35°10' W 007°28'5111.8
2015-Jun-29 00:15N 34°41' W 008°19'811.5
2015-Jun-28 23:33N 34°37' W 008°27'2511.5
2015-Jun-28 21:21N 34°22' W 008°53'911.5
2015-Jun-28 20:33N 34°17' W 009°02'1211.4
2015-Jun-28 19:31N 34°11' W 009°14'1411.6
2015-Jun-28 18:19N 34°03' W 009°28'911.7
2015-Jun-28 17:31N 33°57' W 009°37'1111.9
2015-Jun-28 16:33N 33°51' W 009°48'1211.9
2015-Jun-28 15:33N 33°44' W 010°00'1212.1
2015-Jun-28 14:33N 33°38' W 010°12'1312.0
2015-Jun-28 13:30N 33°30' W 010°25'27 3.3
2015-Jun-28 05:25N 33°03' W 010°27'10510.7
2015-Jun-27 19:33N 31°58' W 012°04'1310.3
2015-Jun-27 18:15N 31°49' W 012°16'12710.8
2015-Jun-27 06:32N 30°26' W 014°08'1312.4
2015-Jun-27 05:29N 30°17' W 014°18'1212.3
2015-Jun-27 04:33N 30°08' W 014°27'1312.4
2015-Jun-27 03:32N 29°58' W 014°36'2812.4
2015-Jun-27 01:15N 29°37' W 014°57'912.7
2015-Jun-27 00:33N 29°30' W 015°04'1312.6
2015-Jun-26 23:33N 29°21' W 015°13'1312.5
2015-Jun-26 22:33N 29°11' W 015°23'1212.2
2015-Jun-26 21:32N 29°02' W 015°32'1212.5
2015-Jun-26 20:33N 28°52' W 015°41'1312.8
2015-Jun-26 19:33N 28°43' W 015°51'1312.8
2015-Jun-26 18:33N 28°33' W 016°00'12 4.9
2015-Jun-26 16:11N 28°29' W 016°13'0 0.1
2015-Jun-26 15:29N 28°29' W 016°13'0 0.0
2015-Jun-26 13:26N 28°29' W 016°13'0 0.0
2015-Jun-26 12:29N 28°29' W 016°13'0 0.0
2015-Jun-26 10:32N 28°29' W 016°13'0 0.0
2015-Jun-26 09:32N 28°29' W 016°13'0 0.3
2015-Jun-26 08:33N 28°29' W 016°12'4 4.5
2015-Jun-26 07:33N 28°25' W 016°14'3510.5
2015-Jun-26 04:15N 27°51' W 016°24'811.8
2015-Jun-26 03:32N 27°42' W 016°24'2311.4
2015-Jun-26 01:31N 27°19' W 016°26'  

Dump ship's entire track history